sensor_id;sensor_type;location;lat;lon;timestamp;P1;durP1;ratioP1;P2;durP2;ratioP2
47335;SDS011;33068;51.990;5.926;2023-04-03T00:01:25;5.07;;;1.27;;
47335;SDS011;33068;51.990;5.926;2023-04-03T00:03:53;1.73;;;0.70;;
47335;SDS011;33068;51.990;5.926;2023-04-03T00:06:21;3.47;;;0.98;;
47335;SDS011;33068;51.990;5.926;2023-04-03T00:08:50;1.75;;;1.00;;
47335;SDS011;33068;51.990;5.926;2023-04-03T00:11:17;3.65;;;0.90;;
47335;SDS011;33068;51.990;5.926;2023-04-03T00:13:45;3.53;;;0.65;;
47335;SDS011;33068;51.990;5.926;2023-04-03T00:16:13;6.32;;;0.80;;
47335;SDS011;33068;51.990;5.926;2023-04-03T00:18:40;2.50;;;0.65;;
47335;SDS011;33068;51.990;5.926;2023-04-03T00:21:09;2.28;;;0.80;;
47335;SDS011;33068;51.990;5.926;2023-04-03T00:23:38;1.25;;;0.55;;
47335;SDS011;33068;51.990;5.926;2023-04-03T00:26:08;2.67;;;0.73;;
47335;SDS011;33068;51.990;5.926;2023-04-03T00:28:37;4.78;;;1.10;;
47335;SDS011;33068;51.990;5.926;2023-04-03T00:31:07;6.95;;;0.80;;
47335;SDS011;33068;51.990;5.926;2023-04-03T00:33:34;1.88;;;0.70;;
47335;SDS011;33068;51.990;5.926;2023-04-03T00:36:05;6.28;;;0.80;;
47335;SDS011;33068;51.990;5.926;2023-04-03T00:38:33;4.50;;;0.85;;
47335;SDS011;33068;51.990;5.926;2023-04-03T00:41:00;3.10;;;0.77;;
47335;SDS011;33068;51.990;5.926;2023-04-03T00:43:29;4.47;;;1.45;;
47335;SDS011;33068;51.990;5.926;2023-04-03T00:45:56;2.72;;;0.60;;
47335;SDS011;33068;51.990;5.926;2023-04-03T00:48:26;4.95;;;1.33;;
47335;SDS011;33068;51.990;5.926;2023-04-03T00:50:59;3.17;;;0.82;;
47335;SDS011;33068;51.990;5.926;2023-04-03T00:53:28;3.60;;;0.70;;
47335;SDS011;33068;51.990;5.926;2023-04-03T00:55:58;2.88;;;0.80;;
47335;SDS011;33068;51.990;5.926;2023-04-03T00:58:31;2.70;;;0.80;;
47335;SDS011;33068;51.990;5.926;2023-04-03T01:01:03;5.05;;;0.70;;
47335;SDS011;33068;51.990;5.926;2023-04-03T01:03:34;2.25;;;0.80;;
47335;SDS011;33068;51.990;5.926;2023-04-03T01:06:03;2.70;;;0.70;;
47335;SDS011;33068;51.990;5.926;2023-04-03T01:08:31;4.38;;;0.68;;
47335;SDS011;33068;51.990;5.926;2023-04-03T01:10:58;2.70;;;0.68;;
47335;SDS011;33068;51.990;5.926;2023-04-03T01:13:27;2.92;;;0.88;;
47335;SDS011;33068;51.990;5.926;2023-04-03T01:16:00;2.15;;;1.10;;
47335;SDS011;33068;51.990;5.926;2023-04-03T01:18:28;2.97;;;1.02;;
47335;SDS011;33068;51.990;5.926;2023-04-03T01:21:06;3.63;;;1.10;;
47335;SDS011;33068;51.990;5.926;2023-04-03T01:23:55;4.70;;;1.05;;
47335;SDS011;33068;51.990;5.926;2023-04-03T01:26:26;3.08;;;0.70;;
47335;SDS011;33068;51.990;5.926;2023-04-03T01:29:14;2.83;;;1.10;;
47335;SDS011;33068;51.990;5.926;2023-04-03T01:32:29;7.47;;;0.80;;
47335;SDS011;33068;51.990;5.926;2023-04-03T01:36:39;5.13;;;1.42;;
47335;SDS011;33068;51.990;5.926;2023-04-03T01:39:36;1.38;;;0.73;;
47335;SDS011;33068;51.990;5.926;2023-04-03T01:46:28;2.92;;;1.20;;
47335;SDS011;33068;51.990;5.926;2023-04-03T02:23:48;4.72;;;1.25;;
47335;SDS011;33068;51.990;5.926;2023-04-03T02:26:17;9.30;;;1.45;;
47335;SDS011;33068;51.990;5.926;2023-04-03T02:28:45;6.25;;;1.27;;
47335;SDS011;33068;51.990;5.926;2023-04-03T02:31:12;4.70;;;1.08;;
47335;SDS011;33068;51.990;5.926;2023-04-03T02:33:41;6.13;;;0.70;;
47335;SDS011;33068;51.990;5.926;2023-04-03T02:36:11;6.05;;;1.35;;
47335;SDS011;33068;51.990;5.926;2023-04-03T02:38:42;2.50;;;0.90;;
47335;SDS011;33068;51.990;5.926;2023-04-03T02:41:11;4.25;;;1.30;;
47335;SDS011;33068;51.990;5.926;2023-04-03T02:43:39;7.95;;;1.17;;
47335;SDS011;33068;51.990;5.926;2023-04-03T02:46:06;5.47;;;1.08;;
47335;SDS011;33068;51.990;5.926;2023-04-03T02:48:34;2.30;;;0.85;;
47335;SDS011;33068;51.990;5.926;2023-04-03T02:51:02;3.42;;;0.82;;
47335;SDS011;33068;51.990;5.926;2023-04-03T02:53:29;2.65;;;0.93;;
47335;SDS011;33068;51.990;5.926;2023-04-03T02:56:00;9.68;;;1.67;;
47335;SDS011;33068;51.990;5.926;2023-04-03T02:58:28;4.32;;;1.30;;
47335;SDS011;33068;51.990;5.926;2023-04-03T03:00:57;5.82;;;1.35;;
47335;SDS011;33068;51.990;5.926;2023-04-03T03:03:24;9.98;;;1.60;;
47335;SDS011;33068;51.990;5.926;2023-04-03T03:06:00;3.88;;;1.50;;
47335;SDS011;33068;51.990;5.926;2023-04-03T03:10:54;9.02;;;1.35;;
47335;SDS011;33068;51.990;5.926;2023-04-03T03:13:21;6.07;;;1.40;;
47335;SDS011;33068;51.990;5.926;2023-04-03T03:15:50;5.70;;;0.98;;
47335;SDS011;33068;51.990;5.926;2023-04-03T03:18:17;4.75;;;0.93;;
47335;SDS011;33068;51.990;5.926;2023-04-03T03:20:44;3.05;;;1.25;;
47335;SDS011;33068;51.990;5.926;2023-04-03T03:23:12;5.88;;;1.10;;
47335;SDS011;33068;51.990;5.926;2023-04-03T03:25:39;3.08;;;1.27;;
47335;SDS011;33068;51.990;5.926;2023-04-03T03:28:07;3.17;;;0.98;;
47335;SDS011;33068;51.990;5.926;2023-04-03T03:30:34;6.97;;;1.27;;
47335;SDS011;33068;51.990;5.926;2023-04-03T03:33:03;6.25;;;1.05;;
47335;SDS011;33068;51.990;5.926;2023-04-03T03:35:30;4.55;;;1.27;;
47335;SDS011;33068;51.990;5.926;2023-04-03T03:37:57;3.45;;;1.40;;
47335;SDS011;33068;51.990;5.926;2023-04-03T03:40:25;5.03;;;1.15;;
47335;SDS011;33068;51.990;5.926;2023-04-03T03:42:52;8.20;;;1.55;;
47335;SDS011;33068;51.990;5.926;2023-04-03T03:45:19;5.95;;;1.38;;
47335;SDS011;33068;51.990;5.926;2023-04-03T03:47:46;5.00;;;1.23;;
47335;SDS011;33068;51.990;5.926;2023-04-03T03:50:15;6.65;;;1.15;;
47335;SDS011;33068;51.990;5.926;2023-04-03T03:52:43;9.48;;;1.98;;
47335;SDS011;33068;51.990;5.926;2023-04-03T03:55:11;3.20;;;1.00;;
47335;SDS011;33068;51.990;5.926;2023-04-03T03:57:38;4.50;;;1.20;;
47335;SDS011;33068;51.990;5.926;2023-04-03T04:00:06;5.85;;;1.42;;
47335;SDS011;33068;51.990;5.926;2023-04-03T04:02:40;6.28;;;1.13;;
47335;SDS011;33068;51.990;5.926;2023-04-03T04:05:12;3.65;;;1.40;;
47335;SDS011;33068;51.990;5.926;2023-04-03T04:07:41;4.28;;;1.08;;
47335;SDS011;33068;51.990;5.926;2023-04-03T04:10:09;6.10;;;1.13;;
47335;SDS011;33068;51.990;5.926;2023-04-03T04:12:36;5.93;;;1.25;;
47335;SDS011;33068;51.990;5.926;2023-04-03T04:15:03;5.05;;;1.05;;
47335;SDS011;33068;51.990;5.926;2023-04-03T04:17:32;4.50;;;1.77;;
47335;SDS011;33068;51.990;5.926;2023-04-03T04:20:01;6.38;;;1.20;;
47335;SDS011;33068;51.990;5.926;2023-04-03T04:22:31;3.63;;;1.15;;
47335;SDS011;33068;51.990;5.926;2023-04-03T04:24:59;4.32;;;1.20;;
47335;SDS011;33068;51.990;5.926;2023-04-03T04:27:27;2.15;;;1.20;;
47335;SDS011;33068;51.990;5.926;2023-04-03T04:29:55;3.92;;;0.90;;
47335;SDS011;33068;51.990;5.926;2023-04-03T04:32:22;5.53;;;1.60;;
47335;SDS011;33068;51.990;5.926;2023-04-03T04:34:49;9.82;;;1.60;;
47335;SDS011;33068;51.990;5.926;2023-04-03T04:37:17;7.57;;;1.63;;
47335;SDS011;33068;51.990;5.926;2023-04-03T04:39:46;6.07;;;1.75;;
47335;SDS011;33068;51.990;5.926;2023-04-03T04:42:14;8.73;;;1.60;;
47335;SDS011;33068;51.990;5.926;2023-04-03T04:44:43;4.65;;;1.38;;
47335;SDS011;33068;51.990;5.926;2023-04-03T04:47:12;3.85;;;1.20;;
47335;SDS011;33068;51.990;5.926;2023-04-03T04:49:42;4.72;;;1.38;;
47335;SDS011;33068;51.990;5.926;2023-04-03T04:52:31;8.07;;;1.20;;
47335;SDS011;33068;51.990;5.926;2023-04-03T04:54:59;4.45;;;1.40;;
47335;SDS011;33068;51.990;5.926;2023-04-03T04:57:28;8.80;;;1.40;;
47335;SDS011;33068;51.990;5.926;2023-04-03T04:59:57;7.88;;;1.25;;
47335;SDS011;33068;51.990;5.926;2023-04-03T05:02:24;3.85;;;1.30;;
47335;SDS011;33068;51.990;5.926;2023-04-03T05:04:52;7.25;;;1.40;;
47335;SDS011;33068;51.990;5.926;2023-04-03T05:07:25;4.05;;;1.08;;
47335;SDS011;33068;51.990;5.926;2023-04-03T05:09:52;4.00;;;1.25;;
47335;SDS011;33068;51.990;5.926;2023-04-03T05:12:19;8.23;;;1.10;;
47335;SDS011;33068;51.990;5.926;2023-04-03T05:14:54;4.25;;;1.00;;
47335;SDS011;33068;51.990;5.926;2023-04-03T05:17:22;4.60;;;1.08;;
47335;SDS011;33068;51.990;5.926;2023-04-03T05:19:52;8.10;;;1.50;;
47335;SDS011;33068;51.990;5.926;2023-04-03T05:22:21;6.60;;;1.50;;
47335;SDS011;33068;51.990;5.926;2023-04-03T05:24:50;5.25;;;1.30;;
47335;SDS011;33068;51.990;5.926;2023-04-03T05:27:19;6.95;;;1.20;;
47335;SDS011;33068;51.990;5.926;2023-04-03T05:29:52;3.17;;;0.88;;
47335;SDS011;33068;51.990;5.926;2023-04-03T05:32:22;6.18;;;1.38;;
47335;SDS011;33068;51.990;5.926;2023-04-03T05:35:01;3.53;;;1.05;;
47335;SDS011;33068;51.990;5.926;2023-04-03T05:37:29;4.20;;;1.23;;
47335;SDS011;33068;51.990;5.926;2023-04-03T05:39:57;3.88;;;1.02;;
47335;SDS011;33068;51.990;5.926;2023-04-03T05:42:24;9.40;;;1.30;;
47335;SDS011;33068;51.990;5.926;2023-04-03T05:44:51;6.30;;;1.25;;
47335;SDS011;33068;51.990;5.926;2023-04-03T05:47:18;3.35;;;0.98;;
47335;SDS011;33068;51.990;5.926;2023-04-03T05:49:47;3.53;;;1.30;;
47335;SDS011;33068;51.990;5.926;2023-04-03T05:52:18;6.03;;;1.15;;
47335;SDS011;33068;51.990;5.926;2023-04-03T05:54:49;2.78;;;1.48;;
47335;SDS011;33068;51.990;5.926;2023-04-03T05:57:22;5.15;;;1.25;;
47335;SDS011;33068;51.990;5.926;2023-04-03T05:59:49;5.25;;;1.40;;
47335;SDS011;33068;51.990;5.926;2023-04-03T06:02:19;6.90;;;1.30;;
47335;SDS011;33068;51.990;5.926;2023-04-03T06:04:49;4.32;;;1.55;;
47335;SDS011;33068;51.990;5.926;2023-04-03T06:07:17;3.22;;;1.00;;
47335;SDS011;33068;51.990;5.926;2023-04-03T06:09:48;4.68;;;1.00;;
47335;SDS011;33068;51.990;5.926;2023-04-03T06:12:17;6.60;;;1.20;;
47335;SDS011;33068;51.990;5.926;2023-04-03T06:14:45;5.82;;;1.48;;
47335;SDS011;33068;51.990;5.926;2023-04-03T06:17:13;6.05;;;1.20;;
47335;SDS011;33068;51.990;5.926;2023-04-03T06:19:41;6.53;;;1.70;;
47335;SDS011;33068;51.990;5.926;2023-04-03T06:22:10;6.15;;;1.40;;
47335;SDS011;33068;51.990;5.926;2023-04-03T06:24:38;6.57;;;1.02;;
47335;SDS011;33068;51.990;5.926;2023-04-03T06:27:05;6.53;;;1.23;;
47335;SDS011;33068;51.990;5.926;2023-04-03T06:29:32;7.43;;;1.75;;
47335;SDS011;33068;51.990;5.926;2023-04-03T06:32:00;2.90;;;1.17;;
47335;SDS011;33068;51.990;5.926;2023-04-03T06:34:27;4.85;;;1.50;;
47335;SDS011;33068;51.990;5.926;2023-04-03T06:36:54;4.65;;;1.02;;
47335;SDS011;33068;51.990;5.926;2023-04-03T06:39:23;4.60;;;1.30;;
47335;SDS011;33068;51.990;5.926;2023-04-03T06:41:50;3.33;;;0.77;;
47335;SDS011;33068;51.990;5.926;2023-04-03T06:44:25;4.55;;;1.10;;
47335;SDS011;33068;51.990;5.926;2023-04-03T06:46:52;4.70;;;0.80;;
47335;SDS011;33068;51.990;5.926;2023-04-03T06:49:19;6.65;;;1.00;;
47335;SDS011;33068;51.990;5.926;2023-04-03T06:51:46;8.73;;;1.40;;
47335;SDS011;33068;51.990;5.926;2023-04-03T06:54:13;2.05;;;1.15;;
47335;SDS011;33068;51.990;5.926;2023-04-03T06:56:42;5.22;;;0.90;;
47335;SDS011;33068;51.990;5.926;2023-04-03T06:59:10;5.88;;;1.10;;
47335;SDS011;33068;51.990;5.926;2023-04-03T07:01:38;4.20;;;1.08;;
47335;SDS011;33068;51.990;5.926;2023-04-03T07:04:05;4.90;;;1.05;;
47335;SDS011;33068;51.990;5.926;2023-04-03T07:06:33;5.38;;;1.23;;
47335;SDS011;33068;51.990;5.926;2023-04-03T07:09:00;6.70;;;0.98;;
47335;SDS011;33068;51.990;5.926;2023-04-03T07:11:28;7.55;;;1.13;;
47335;SDS011;33068;51.990;5.926;2023-04-03T07:13:56;5.47;;;1.30;;
47335;SDS011;33068;51.990;5.926;2023-04-03T07:16:23;5.55;;;1.27;;
47335;SDS011;33068;51.990;5.926;2023-04-03T07:18:50;6.72;;;1.10;;
47335;SDS011;33068;51.990;5.926;2023-04-03T07:21:17;8.05;;;0.90;;
47335;SDS011;33068;51.990;5.926;2023-04-03T07:23:44;5.82;;;1.15;;
47335;SDS011;33068;51.990;5.926;2023-04-03T07:26:11;10.30;;;1.00;;
47335;SDS011;33068;51.990;5.926;2023-04-03T07:28:38;3.67;;;1.15;;
47335;SDS011;33068;51.990;5.926;2023-04-03T07:31:09;2.92;;;0.63;;
47335;SDS011;33068;51.990;5.926;2023-04-03T07:33:38;5.80;;;1.13;;
47335;SDS011;33068;51.990;5.926;2023-04-03T07:36:07;5.75;;;0.82;;
47335;SDS011;33068;51.990;5.926;2023-04-03T07:38:36;9.15;;;1.13;;
47335;SDS011;33068;51.990;5.926;2023-04-03T07:41:03;5.38;;;0.77;;
47335;SDS011;33068;51.990;5.926;2023-04-03T07:43:31;5.82;;;1.02;;
47335;SDS011;33068;51.990;5.926;2023-04-03T07:45:58;2.80;;;0.80;;
47335;SDS011;33068;51.990;5.926;2023-04-03T07:48:27;2.42;;;0.73;;
47335;SDS011;33068;51.990;5.926;2023-04-03T07:50:54;3.67;;;1.00;;
47335;SDS011;33068;51.990;5.926;2023-04-03T07:53:25;1.85;;;0.70;;
47335;SDS011;33068;51.990;5.926;2023-04-03T07:55:52;1.92;;;0.85;;
47335;SDS011;33068;51.990;5.926;2023-04-03T07:58:21;4.43;;;0.85;;
47335;SDS011;33068;51.990;5.926;2023-04-03T08:00:48;5.60;;;0.80;;
47335;SDS011;33068;51.990;5.926;2023-04-03T08:03:15;7.47;;;1.10;;
47335;SDS011;33068;51.990;5.926;2023-04-03T08:05:44;2.85;;;0.60;;
47335;SDS011;33068;51.990;5.926;2023-04-03T08:08:13;2.83;;;0.82;;
47335;SDS011;33068;51.990;5.926;2023-04-03T08:10:42;5.07;;;0.77;;
47335;SDS011;33068;51.990;5.926;2023-04-03T08:13:10;3.22;;;0.80;;
47335;SDS011;33068;51.990;5.926;2023-04-03T08:15:37;3.88;;;0.75;;
47335;SDS011;33068;51.990;5.926;2023-04-03T08:18:04;3.60;;;0.60;;
47335;SDS011;33068;51.990;5.926;2023-04-03T08:20:31;3.42;;;0.55;;
47335;SDS011;33068;51.990;5.926;2023-04-03T08:23:00;3.20;;;0.82;;
47335;SDS011;33068;51.990;5.926;2023-04-03T08:25:27;2.58;;;0.47;;
47335;SDS011;33068;51.990;5.926;2023-04-03T08:27:55;5.95;;;0.93;;
47335;SDS011;33068;51.990;5.926;2023-04-03T08:30:22;5.57;;;0.60;;
47335;SDS011;33068;51.990;5.926;2023-04-03T08:32:49;1.40;;;0.50;;
47335;SDS011;33068;51.990;5.926;2023-04-03T08:35:16;6.47;;;0.50;;
47335;SDS011;33068;51.990;5.926;2023-04-03T08:37:45;4.03;;;0.90;;
47335;SDS011;33068;51.990;5.926;2023-04-03T08:40:14;1.38;;;0.55;;
47335;SDS011;33068;51.990;5.926;2023-04-03T08:42:46;2.08;;;0.40;;
47335;SDS011;33068;51.990;5.926;2023-04-03T08:45:26;3.80;;;0.50;;
47335;SDS011;33068;51.990;5.926;2023-04-03T08:48:04;1.50;;;0.38;;
47335;SDS011;33068;51.990;5.926;2023-04-03T08:50:34;2.20;;;0.40;;
47335;SDS011;33068;51.990;5.926;2023-04-03T08:53:05;2.63;;;0.40;;
47335;SDS011;33068;51.990;5.926;2023-04-03T08:55:39;4.07;;;0.40;;
47335;SDS011;33068;51.990;5.926;2023-04-03T08:58:10;0.70;;;0.20;;
47335;SDS011;33068;51.990;5.926;2023-04-03T09:00:43;0.55;;;0.20;;
47335;SDS011;33068;51.990;5.926;2023-04-03T09:03:13;0.75;;;0.28;;
47335;SDS011;33068;51.990;5.926;2023-04-03T09:05:43;1.85;;;0.45;;
47335;SDS011;33068;51.990;5.926;2023-04-03T09:08:18;1.88;;;0.25;;
47335;SDS011;33068;51.990;5.926;2023-04-03T09:10:52;0.32;;;0.20;;
47335;SDS011;33068;51.990;5.926;2023-04-03T09:13:27;2.45;;;0.10;;
47335;SDS011;33068;51.990;5.926;2023-04-03T09:15:59;1.30;;;0.15;;
47335;SDS011;33068;51.990;5.926;2023-04-03T09:18:32;1.15;;;0.40;;
47335;SDS011;33068;51.990;5.926;2023-04-03T09:21:07;2.28;;;0.32;;
47335;SDS011;33068;51.990;5.926;2023-04-03T09:23:41;1.00;;;0.20;;
47335;SDS011;33068;51.990;5.926;2023-04-03T09:26:15;0.60;;;0.30;;
47335;SDS011;33068;51.990;5.926;2023-04-03T09:28:46;0.75;;;0.30;;
47335;SDS011;33068;51.990;5.926;2023-04-03T09:31:16;0.32;;;0.20;;
47335;SDS011;33068;51.990;5.926;2023-04-03T09:33:47;1.50;;;0.28;;
47335;SDS011;33068;51.990;5.926;2023-04-03T09:36:37;1.83;;;0.20;;
47335;SDS011;33068;51.990;5.926;2023-04-03T09:39:05;2.00;;;0.30;;
47335;SDS011;33068;51.990;5.926;2023-04-03T09:41:37;0.45;;;0.10;;
47335;SDS011;33068;51.990;5.926;2023-04-03T09:44:17;0.55;;;0.10;;
47335;SDS011;33068;51.990;5.926;2023-04-03T09:46:47;0.10;;;0.10;;
47335;SDS011;33068;51.990;5.926;2023-04-03T09:49:14;0.43;;;0.10;;
47335;SDS011;33068;51.990;5.926;2023-04-03T09:51:41;0.80;;;0.10;;
47335;SDS011;33068;51.990;5.926;2023-04-03T09:54:26;0.15;;;0.10;;
47335;SDS011;33068;51.990;5.926;2023-04-03T09:57:01;0.55;;;0.20;;
47335;SDS011;33068;51.990;5.926;2023-04-03T09:59:33;0.40;;;0.15;;
47335;SDS011;33068;51.990;5.926;2023-04-03T10:02:00;1.13;;;0.10;;
47335;SDS011;33068;51.990;5.926;2023-04-03T10:04:37;1.55;;;0.20;;
47335;SDS011;33068;51.990;5.926;2023-04-03T10:07:25;1.00;;;0.25;;
47335;SDS011;33068;51.990;5.926;2023-04-03T10:09:54;1.27;;;0.20;;
47335;SDS011;33068;51.990;5.926;2023-04-03T10:12:23;0.20;;;0.10;;
47335;SDS011;33068;51.990;5.926;2023-04-03T10:14:54;2.28;;;0.20;;
47335;SDS011;33068;51.990;5.926;2023-04-03T10:17:25;1.45;;;0.30;;
47335;SDS011;33068;51.990;5.926;2023-04-03T10:20:00;1.27;;;0.20;;
47335;SDS011;33068;51.990;5.926;2023-04-03T10:22:38;1.95;;;0.25;;
47335;SDS011;33068;51.990;5.926;2023-04-03T10:25:15;0.98;;;0.15;;
47335;SDS011;33068;51.990;5.926;2023-04-03T10:27:51;0.70;;;0.20;;
47335;SDS011;33068;51.990;5.926;2023-04-03T10:30:27;0.40;;;0.15;;
47335;SDS011;33068;51.990;5.926;2023-04-03T10:33:05;2.17;;;0.22;;
47335;SDS011;33068;51.990;5.926;2023-04-03T10:35:42;2.00;;;0.30;;
47335;SDS011;33068;51.990;5.926;2023-04-03T10:38:15;1.45;;;0.30;;
47335;SDS011;33068;51.990;5.926;2023-04-03T10:40:52;2.47;;;0.30;;
47335;SDS011;33068;51.990;5.926;2023-04-03T10:43:28;1.58;;;0.20;;
47335;SDS011;33068;51.990;5.926;2023-04-03T10:46:08;1.60;;;0.40;;
47335;SDS011;33068;51.990;5.926;2023-04-03T10:48:51;1.90;;;0.52;;
47335;SDS011;33068;51.990;5.926;2023-04-03T10:51:39;2.92;;;0.38;;
47335;SDS011;33068;51.990;5.926;2023-04-03T10:54:12;1.75;;;0.40;;
47335;SDS011;33068;51.990;5.926;2023-04-03T10:56:44;1.20;;;0.40;;
47335;SDS011;33068;51.990;5.926;2023-04-03T10:59:21;1.20;;;0.40;;
47335;SDS011;33068;51.990;5.926;2023-04-03T11:01:52;1.02;;;0.20;;
47335;SDS011;33068;51.990;5.926;2023-04-03T11:04:26;1.75;;;0.25;;
47335;SDS011;33068;51.990;5.926;2023-04-03T11:06:57;1.70;;;0.30;;
47335;SDS011;33068;51.990;5.926;2023-04-03T11:09:28;1.55;;;0.40;;
47335;SDS011;33068;51.990;5.926;2023-04-03T11:12:00;1.70;;;0.40;;
47335;SDS011;33068;51.990;5.926;2023-04-03T11:14:34;1.42;;;0.30;;
47335;SDS011;33068;51.990;5.926;2023-04-03T11:17:11;0.75;;;0.40;;
47335;SDS011;33068;51.990;5.926;2023-04-03T11:19:49;1.50;;;0.30;;
47335;SDS011;33068;51.990;5.926;2023-04-03T11:22:25;1.90;;;0.20;;
47335;SDS011;33068;51.990;5.926;2023-04-03T11:24:57;1.20;;;0.30;;
47335;SDS011;33068;51.990;5.926;2023-04-03T11:27:32;0.50;;;0.20;;
47335;SDS011;33068;51.990;5.926;2023-04-03T11:30:07;1.60;;;0.60;;
47335;SDS011;33068;51.990;5.926;2023-04-03T11:32:48;1.08;;;0.40;;
47335;SDS011;33068;51.990;5.926;2023-04-03T11:35:41;0.55;;;0.30;;
47335;SDS011;33068;51.990;5.926;2023-04-03T11:38:10;0.65;;;0.20;;
47335;SDS011;33068;51.990;5.926;2023-04-03T11:40:45;0.50;;;0.30;;
47335;SDS011;33068;51.990;5.926;2023-04-03T11:43:21;2.20;;;0.20;;
47335;SDS011;33068;51.990;5.926;2023-04-03T11:45:54;0.20;;;0.20;;
47335;SDS011;33068;51.990;5.926;2023-04-03T12:12:42;2.85;;;0.43;;
47335;SDS011;33068;51.990;5.926;2023-04-03T12:15:17;0.88;;;0.38;;
47335;SDS011;33068;51.990;5.926;2023-04-03T12:17:49;2.95;;;0.40;;
47335;SDS011;33068;51.990;5.926;2023-04-03T12:23:29;1.75;;;0.32;;
47335;SDS011;33068;51.990;5.926;2023-04-03T12:26:05;1.67;;;0.25;;
47335;SDS011;33068;51.990;5.926;2023-04-03T12:28:46;0.73;;;0.20;;
47335;SDS011;33068;51.990;5.926;2023-04-03T12:31:15;3.00;;;0.30;;
47335;SDS011;33068;51.990;5.926;2023-04-03T12:36:42;2.35;;;0.40;;
47335;SDS011;33068;51.990;5.926;2023-04-03T12:39:20;0.43;;;0.30;;
47335;SDS011;33068;51.990;5.926;2023-04-03T12:42:03;1.05;;;0.32;;
47335;SDS011;33068;51.990;5.926;2023-04-03T12:44:45;1.83;;;0.30;;
47335;SDS011;33068;51.990;5.926;2023-04-03T12:47:23;0.52;;;0.22;;
47335;SDS011;33068;51.990;5.926;2023-04-03T12:49:55;1.85;;;0.47;;
47335;SDS011;33068;51.990;5.926;2023-04-03T12:52:28;2.45;;;0.40;;
47335;SDS011;33068;51.990;5.926;2023-04-03T12:55:00;1.80;;;0.22;;
47335;SDS011;33068;51.990;5.926;2023-04-03T12:57:30;5.25;;;0.50;;
47335;SDS011;33068;51.990;5.926;2023-04-03T12:59:58;2.60;;;0.30;;
47335;SDS011;33068;51.990;5.926;2023-04-03T13:02:26;3.70;;;0.17;;
47335;SDS011;33068;51.990;5.926;2023-04-03T13:04:55;0.77;;;0.20;;
47335;SDS011;33068;51.990;5.926;2023-04-03T13:07:25;2.30;;;0.52;;
47335;SDS011;33068;51.990;5.926;2023-04-03T13:10:02;1.58;;;0.40;;
47335;SDS011;33068;51.990;5.926;2023-04-03T13:12:46;1.95;;;0.40;;
47335;SDS011;33068;51.990;5.926;2023-04-03T13:15:16;0.47;;;0.28;;
47335;SDS011;33068;51.990;5.926;2023-04-03T13:17:46;1.48;;;0.40;;
47335;SDS011;33068;51.990;5.926;2023-04-03T13:20:17;3.08;;;0.45;;
47335;SDS011;33068;51.990;5.926;2023-04-03T13:22:48;2.95;;;0.40;;
47335;SDS011;33068;51.990;5.926;2023-04-03T13:25:20;1.08;;;0.30;;
47335;SDS011;33068;51.990;5.926;2023-04-03T13:27:50;3.90;;;0.50;;
47335;SDS011;33068;51.990;5.926;2023-04-03T13:30:20;1.52;;;0.45;;
47335;SDS011;33068;51.990;5.926;2023-04-03T13:32:50;1.83;;;0.40;;
47335;SDS011;33068;51.990;5.926;2023-04-03T13:35:25;2.58;;;0.60;;
47335;SDS011;33068;51.990;5.926;2023-04-03T13:37:55;0.68;;;0.30;;
47335;SDS011;33068;51.990;5.926;2023-04-03T13:40:23;2.33;;;0.40;;
47335;SDS011;33068;51.990;5.926;2023-04-03T13:42:59;1.50;;;0.40;;
47335;SDS011;33068;51.990;5.926;2023-04-03T13:45:28;2.47;;;0.50;;
47335;SDS011;33068;51.990;5.926;2023-04-03T13:48:08;2.63;;;0.35;;
47335;SDS011;33068;51.990;5.926;2023-04-03T13:50:52;3.20;;;0.60;;
47335;SDS011;33068;51.990;5.926;2023-04-03T13:53:22;1.77;;;0.55;;
47335;SDS011;33068;51.990;5.926;2023-04-03T13:55:55;2.47;;;0.50;;
47335;SDS011;33068;51.990;5.926;2023-04-03T13:58:33;2.25;;;0.40;;
47335;SDS011;33068;51.990;5.926;2023-04-03T14:01:07;5.55;;;0.70;;
47335;SDS011;33068;51.990;5.926;2023-04-03T14:03:40;3.15;;;0.40;;
47335;SDS011;33068;51.990;5.926;2023-04-03T14:06:12;2.33;;;0.70;;
47335;SDS011;33068;51.990;5.926;2023-04-03T14:08:42;1.00;;;0.30;;
47335;SDS011;33068;51.990;5.926;2023-04-03T14:11:11;1.95;;;0.68;;
47335;SDS011;33068;51.990;5.926;2023-04-03T14:13:43;1.33;;;0.45;;
47335;SDS011;33068;51.990;5.926;2023-04-03T14:16:12;5.68;;;0.35;;
47335;SDS011;33068;51.990;5.926;2023-04-03T14:18:42;2.03;;;0.40;;
47335;SDS011;33068;51.990;5.926;2023-04-03T14:21:11;3.13;;;0.60;;
47335;SDS011;33068;51.990;5.926;2023-04-03T14:23:39;4.90;;;0.60;;
47335;SDS011;33068;51.990;5.926;2023-04-03T14:26:08;1.08;;;0.55;;
47335;SDS011;33068;51.990;5.926;2023-04-03T14:28:38;3.67;;;0.60;;
47335;SDS011;33068;51.990;5.926;2023-04-03T14:31:07;1.40;;;0.50;;
47335;SDS011;33068;51.990;5.926;2023-04-03T14:33:36;1.13;;;0.40;;
47335;SDS011;33068;51.990;5.926;2023-04-03T14:36:05;3.92;;;0.50;;
47335;SDS011;33068;51.990;5.926;2023-04-03T14:38:39;4.40;;;0.60;;
47335;SDS011;33068;51.990;5.926;2023-04-03T14:41:07;2.22;;;0.60;;
47335;SDS011;33068;51.990;5.926;2023-04-03T14:43:37;2.17;;;0.70;;
47335;SDS011;33068;51.990;5.926;2023-04-03T14:46:08;1.25;;;0.52;;
47335;SDS011;33068;51.990;5.926;2023-04-03T14:48:39;2.60;;;0.57;;
47335;SDS011;33068;51.990;5.926;2023-04-03T14:51:06;3.75;;;0.52;;
47335;SDS011;33068;51.990;5.926;2023-04-03T14:53:35;4.43;;;0.70;;
47335;SDS011;33068;51.990;5.926;2023-04-03T14:56:04;1.42;;;0.65;;
47335;SDS011;33068;51.990;5.926;2023-04-03T14:58:37;4.95;;;0.63;;
47335;SDS011;33068;51.990;5.926;2023-04-03T15:01:04;2.53;;;0.90;;
47335;SDS011;33068;51.990;5.926;2023-04-03T15:03:32;3.67;;;0.57;;
47335;SDS011;33068;51.990;5.926;2023-04-03T15:06:00;4.15;;;0.50;;
47335;SDS011;33068;51.990;5.926;2023-04-03T15:08:27;1.27;;;0.50;;
47335;SDS011;33068;51.990;5.926;2023-04-03T15:10:56;0.82;;;0.50;;
47335;SDS011;33068;51.990;5.926;2023-04-03T15:13:23;3.70;;;0.98;;
47335;SDS011;33068;51.990;5.926;2023-04-03T15:15:51;2.28;;;0.70;;
47335;SDS011;33068;51.990;5.926;2023-04-03T15:18:19;1.67;;;0.50;;
47335;SDS011;33068;51.990;5.926;2023-04-03T15:20:49;2.33;;;0.50;;
47335;SDS011;33068;51.990;5.926;2023-04-03T15:23:16;4.90;;;0.60;;
47335;SDS011;33068;51.990;5.926;2023-04-03T15:25:44;4.47;;;0.55;;
47335;SDS011;33068;51.990;5.926;2023-04-03T15:28:17;2.17;;;0.73;;
47335;SDS011;33068;51.990;5.926;2023-04-03T15:30:46;4.25;;;0.70;;
47335;SDS011;33068;51.990;5.926;2023-04-03T15:33:13;2.78;;;0.73;;
47335;SDS011;33068;51.990;5.926;2023-04-03T15:35:41;2.15;;;0.50;;
47335;SDS011;33068;51.990;5.926;2023-04-03T15:38:10;4.72;;;1.15;;
47335;SDS011;33068;51.990;5.926;2023-04-03T15:40:37;2.60;;;0.77;;
47335;SDS011;33068;51.990;5.926;2023-04-03T15:43:05;1.65;;;0.52;;
47335;SDS011;33068;51.990;5.926;2023-04-03T15:45:33;2.00;;;0.50;;
47335;SDS011;33068;51.990;5.926;2023-04-03T15:48:02;3.20;;;0.77;;
47335;SDS011;33068;51.990;5.926;2023-04-03T15:50:30;4.43;;;0.70;;
47335;SDS011;33068;51.990;5.926;2023-04-03T15:52:58;1.15;;;0.50;;
47335;SDS011;33068;51.990;5.926;2023-04-03T15:55:28;6.10;;;0.80;;
47335;SDS011;33068;51.990;5.926;2023-04-03T15:57:57;2.15;;;0.50;;
47335;SDS011;33068;51.990;5.926;2023-04-03T16:00:24;2.75;;;0.65;;
47335;SDS011;33068;51.990;5.926;2023-04-03T16:02:54;3.35;;;0.82;;
47335;SDS011;33068;51.990;5.926;2023-04-03T16:05:25;5.32;;;0.70;;
47335;SDS011;33068;51.990;5.926;2023-04-03T16:07:52;3.90;;;0.80;;
47335;SDS011;33068;51.990;5.926;2023-04-03T16:10:20;4.25;;;1.13;;
47335;SDS011;33068;51.990;5.926;2023-04-03T16:12:48;3.45;;;0.50;;
47335;SDS011;33068;51.990;5.926;2023-04-03T16:15:15;2.90;;;0.68;;
47335;SDS011;33068;51.990;5.926;2023-04-03T16:17:43;3.30;;;0.70;;
47335;SDS011;33068;51.990;5.926;2023-04-03T16:20:10;3.65;;;0.93;;
47335;SDS011;33068;51.990;5.926;2023-04-03T16:22:39;1.65;;;0.60;;